Terminal Aerodrome Forecast
Issued by NWS

Home | Current Version | Previous Version | Text Only | Print | Product List | Glossary Off
Versions: 1 2 3 4 5 6 7 8 9 10 11 12 13 14 15 16 17

341
FTUS43 KABR 151122
TAFPIR
TAF
KPIR 151122Z 1512/1612 31014KT P6SM SKC
     FM151400 33009KT P6SM BKN025
     FM152300 VRB05KT P6SM SCT250
     FM161000 12016G26KT P6SM BKN100=

USA.gov is the U.S. government's official web portal to all federal, state and local government web resources and services.